Time;durP1;ratioP1;P1;durP2;ratioP2;P2;SDS_P1;SDS_P2;PMS_P1;PMS_P2;Temp;Humidity;BMP_temperature;BMP_pressure;BME280_temperature;BME280_humidity;BME280_pressure;Samples;Min_cycle;Max_cycle;Signal;HPM_P1;HPM_P2
2023/10/30 00:02:08;;;;;;;2.83;2.23;;;;;;;12.60;100.00;95301.84;5036638;28;20586;-72
2023/10/30 00:04:34;;;;;;;5.07;2.07;;;;;;;12.39;100.00;95296.06;5037742;28;20236;-72
2023/10/30 00:07:01;;;;;;;3.80;2.20;;;;;;;12.46;100.00;95297.66;5036891;28;20201;-72
2023/10/30 00:09:28;;;;;;;2.60;1.90;;;;;;;12.30;100.00;95294.69;5037346;28;20266;-72
2023/10/30 00:11:56;;;;;;;3.13;2.03;;;;;;;12.31;100.00;95291.81;5036156;28;20201;-72
2023/10/30 00:14:23;;;;;;;6.53;2.10;;;;;;;12.21;100.00;95299.38;5036377;28;20197;-72
2023/10/30 00:16:49;;;;;;;1.80;1.60;;;;;;;12.26;100.00;95302.19;5037393;28;20215;-72
2023/10/30 00:19:16;;;;;;;2.43;1.70;;;;;;;12.26;100.00;95304.03;5037109;28;20583;-72
2023/10/30 00:21:43;;;;;;;2.80;1.83;;;;;;;12.21;100.00;95307.28;5036414;28;20205;-72
2023/10/30 00:24:10;;;;;;;7.23;2.20;;;;;;;12.24;100.00;95304.25;5037038;28;20250;-72
2023/10/30 00:26:36;;;;;;;3.90;2.50;;;;;;;12.14;100.00;95297.78;5038025;28;20205;-72
2023/10/30 00:29:04;;;;;;;3.23;2.20;;;;;;;12.37;100.00;95293.63;5035860;28;20242;-72
2023/10/30 00:31:31;;;;;;;2.90;1.93;;;;;;;12.12;100.00;95293.72;5036452;28;20209;-72
2023/10/30 00:33:57;;;;;;;3.13;1.93;;;;;;;12.08;100.00;95293.34;5036937;28;20205;-72
2023/10/30 00:36:24;;;;;;;2.90;2.00;;;;;;;12.14;100.00;95296.97;5036606;28;20224;-72
2023/10/30 00:38:50;;;;;;;2.93;2.00;;;;;;;12.11;100.00;95292.13;5035955;28;20208;-72
2023/10/30 00:41:17;;;;;;;2.30;1.80;;;;;;;12.07;100.00;95285.63;5036814;28;20229;-72
2023/10/30 00:43:43;;;;;;;3.40;2.20;;;;;;;11.99;100.00;95284.03;5036857;28;20933;-72
2023/10/30 00:46:11;;;;;;;3.00;1.77;;;;;;;11.98;100.00;95289.53;5036555;28;20332;-72
2023/10/30 00:48:37;;;;;;;4.63;2.40;;;;;;;12.02;100.00;95288.88;5036992;28;20590;-72
2023/10/30 00:51:04;;;;;;;2.67;1.67;;;;;;;11.98;100.00;95302.72;5036068;28;20204;-72
2023/10/30 00:53:31;;;;;;;3.07;1.97;;;;;;;12.06;100.00;95307.78;5036480;28;20201;-72
2023/10/30 00:55:57;;;;;;;2.80;1.90;;;;;;;12.12;100.00;95305.13;5036210;28;20225;-72
2023/10/30 00:58:24;;;;;;;3.00;2.00;;;;;;;12.08;100.00;95305.72;5036113;28;20846;-72
2023/10/30 01:00:50;;;;;;;3.13;2.33;;;;;;;12.05;100.00;95303.50;5035621;28;20236;-72
2023/10/30 01:03:23;;;;;;;3.30;2.10;;;;;;;12.19;100.00;95308.53;5036328;28;20205;-72
2023/10/30 01:05:56;;;;;;;4.53;2.23;;;;;;;12.20;100.00;95313.59;5036052;28;20278;-72
2023/10/30 01:08:23;;;;;;;6.60;3.23;;;;;;;12.15;100.00;95309.16;5036377;28;20205;-72
2023/10/30 01:10:49;;;;;;;7.97;2.90;;;;;;;12.10;100.00;95307.13;5035472;28;20663;-72
2023/10/30 01:13:16;;;;;;;4.63;2.50;;;;;;;12.07;100.00;95307.56;5035976;28;20220;-72
2023/10/30 01:15:42;;;;;;;6.17;2.73;;;;;;;12.15;100.00;95320.53;5036046;28;20236;-72
2023/10/30 01:18:09;;;;;;;5.90;2.80;;;;;;;12.16;100.00;95319.50;5035952;28;20335;-72
2023/10/30 01:20:40;;;;;;;4.80;2.70;;;;;;;12.21;100.00;95315.22;5035821;28;20710;-72
2023/10/30 01:23:06;;;;;;;3.17;2.27;;;;;;;11.94;100.00;95327.91;5035320;28;20216;-72
2023/10/30 01:25:33;;;;;;;6.23;2.33;;;;;;;11.92;100.00;95325.47;5036216;28;20232;-72
2023/10/30 01:27:59;;;;;;;3.73;2.23;;;;;;;12.00;100.00;95329.72;5035880;28;20282;-72
2023/10/30 01:30:26;;;;;;;3.27;2.43;;;;;;;11.98;100.00;95321.22;5036141;28;20201;-72
2023/10/30 01:32:53;;;;;;;3.57;2.33;;;;;;;11.95;100.00;95329.53;5035439;28;20212;-72
2023/10/30 01:35:19;;;;;;;5.60;2.03;;;;;;;11.86;100.00;95330.75;5036376;28;20233;-72
2023/10/30 01:37:47;;;;;;;6.63;1.80;;;;;;;11.96;100.00;95331.16;5036197;28;21051;-72
2023/10/30 01:40:15;;;;;;;2.77;1.90;;;;;;;11.92;100.00;95329.94;5035180;28;20221;-72
2023/10/30 01:42:41;;;;;;;5.33;2.00;;;;;;;11.64;100.00;95322.28;5035729;28;20576;-72
2023/10/30 01:45:09;;;;;;;2.80;1.97;;;;;;;11.49;100.00;95328.75;5036149;28;20320;-72
2023/10/30 01:47:35;;;;;;;2.93;1.90;;;;;;;11.44;100.00;95330.38;5034841;28;21286;-72
2023/10/30 01:50:02;;;;;;;3.07;1.73;;;;;;;11.60;100.00;95334.25;5035084;28;20206;-72
2023/10/30 01:52:31;;;;;;;2.87;1.83;;;;;;;11.74;100.00;95332.41;5035822;28;20205;-72
2023/10/30 01:54:59;;;;;;;3.03;2.03;;;;;;;11.63;100.00;95338.31;5035342;28;20231;-72
2023/10/30 01:57:28;;;;;;;3.87;2.20;;;;;;;11.65;100.00;95334.44;5035021;28;20197;-72
2023/10/30 01:59:56;;;;;;;2.63;1.70;;;;;;;11.53;100.00;95335.28;5035414;28;20699;-71
2023/10/30 02:02:24;;;;;;;8.07;1.80;;;;;;;11.41;100.00;95330.81;5035154;28;20208;-72
2023/10/30 02:04:51;;;;;;;1.80;1.40;;;;;;;11.20;100.00;95323.91;5036140;28;20225;-72
2023/10/30 02:07:17;;;;;;;2.63;1.70;;;;;;;11.18;100.00;95328.56;5034982;28;20201;-72
2023/10/30 02:09:45;;;;;;;2.90;1.70;;;;;;;11.04;100.00;95319.03;5035736;28;20679;-72
2023/10/30 02:12:13;;;;;;;3.90;1.90;;;;;;;11.08;100.00;95324.72;5033551;28;20205;-72
2023/10/30 02:14:39;;;;;;;2.40;1.63;;;;;;;10.98;100.00;95325.13;5036184;28;20236;-72
2023/10/30 02:17:06;;;;;;;3.73;1.80;;;;;;;10.71;100.00;95320.00;5034655;28;20209;-72
2023/10/30 02:19:32;;;;;;;2.47;1.63;;;;;;;10.78;100.00;95309.47;5035101;28;20683;-72
2023/10/30 02:21:59;;;;;;;4.90;2.07;;;;;;;10.59;100.00;95310.22;5034455;28;20228;-72
2023/10/30 02:24:25;;;;;;;2.13;1.50;;;;;;;10.66;100.00;95305.78;5035505;28;20205;-72
2023/10/30 02:26:53;;;;;;;1.77;1.50;;;;;;;10.68;100.00;95309.84;5036087;28;20215;-72
2023/10/30 02:29:20;;;;;;;2.07;1.80;;;;;;;10.40;100.00;95318.91;5034800;28;20217;-72
2023/10/30 02:31:47;;;;;;;3.13;1.70;;;;;;;10.49;100.00;95323.00;5035070;28;20202;-72
2023/10/30 02:34:14;;;;;;;2.50;1.80;;;;;;;10.54;100.00;95325.84;5034650;28;20220;-72
2023/10/30 02:36:40;;;;;;;2.03;1.60;;;;;;;10.57;100.00;95323.59;5035075;28;20211;-72
2023/10/30 02:39:08;;;;;;;3.47;1.97;;;;;;;10.64;100.00;95318.34;5034755;28;20201;-72
2023/10/30 02:41:35;;;;;;;2.63;2.10;;;;;;;10.47;100.00;95322.34;5035483;28;20275;-72
2023/10/30 02:44:03;;;;;;;3.03;2.13;;;;;;;10.66;100.00;95314.50;5034676;28;20217;-72
2023/10/30 02:46:29;;;;;;;3.17;2.00;;;;;;;10.56;100.00;95308.00;5035156;28;20225;-71
2023/10/30 02:48:56;;;;;;;3.07;1.87;;;;;;;10.64;100.00;95305.16;5034845;28;20208;-72
2023/10/30 02:51:22;;;;;;;3.60;2.17;;;;;;;10.42;100.00;95306.34;5034563;28;20208;-72
2023/10/30 02:53:49;;;;;;;5.07;2.80;;;;;;;10.54;100.00;95310.03;5034875;28;20205;-72
2023/10/30 02:56:16;;;;;;;4.37;3.00;;;;;;;10.68;100.00;95307.22;5035771;28;20225;-72
2023/10/30 02:58:42;;;;;;;5.93;3.40;;;;;;;10.72;100.00;95295.28;5037243;28;20201;-71
2023/10/30 03:01:10;;;;;;;7.07;3.90;;;;;;;10.91;100.00;95305.03;5037817;28;20247;-72
2023/10/30 03:03:37;;;;;;;7.73;4.23;;;;;;;10.92;100.00;95306.66;5038779;28;20205;-72
2023/10/30 03:06:04;;;;;;;6.40;3.73;;;;;;;10.89;100.00;95300.97;5039029;28;20225;-71
2023/10/30 03:08:30;;;;;;;6.93;3.23;;;;;;;10.73;100.00;95307.44;5038200;28;20675;-72
2023/10/30 03:10:57;;;;;;;12.23;4.40;;;;;;;10.68;100.00;95311.66;5038586;28;20220;-72
2023/10/30 03:13:23;;;;;;;7.97;4.00;;;;;;;10.85;100.00;95315.56;5038607;28;20201;-71
2023/10/30 03:15:50;;;;;;;4.47;2.90;;;;;;;10.87;100.00;95310.88;5038138;28;20225;-71
2023/10/30 03:18:18;;;;;;;5.23;3.10;;;;;;;10.94;100.00;95321.22;5038084;28;20952;-72
2023/10/30 03:20:44;;;;;;;6.00;3.50;;;;;;;10.71;100.00;95321.81;5038551;28;20974;-72
2023/10/30 03:23:11;;;;;;;4.53;3.03;;;;;;;10.69;100.00;95318.56;5037784;28;20215;-72
2023/10/30 03:25:38;;;;;;;5.03;3.10;;;;;;;10.53;100.00;95329.47;5038521;28;20225;-72
2023/10/30 03:28:05;;;;;;;5.33;3.40;;;;;;;10.56;100.00;95321.16;5038296;28;20569;-72
2023/10/30 03:30:34;;;;;;;4.47;2.80;;;;;;;10.87;100.00;95311.72;5038344;28;20279;-72
2023/10/30 03:33:01;;;;;;;6.37;3.50;;;;;;;10.65;100.00;95322.59;5037525;28;20201;-72
2023/10/30 03:35:29;;;;;;;5.50;3.50;;;;;;;10.77;100.00;95319.19;5037988;28;20260;-72
2023/10/30 03:37:55;;;;;;;5.17;3.43;;;;;;;10.73;100.00;95317.16;5036736;28;20208;-72
2023/10/30 03:40:22;;;;;;;6.47;3.70;;;;;;;10.59;100.00;95311.06;5037397;28;20197;-72
2023/10/30 03:42:49;;;;;;;5.83;3.40;;;;;;;10.62;100.00;95296.69;5037884;28;20205;-71
2023/10/30 03:45:15;;;;;;;5.03;3.37;;;;;;;10.66;100.00;95287.34;5037163;28;20711;-72
2023/10/30 03:47:43;;;;;;;6.13;3.80;;;;;;;10.42;100.00;95287.91;5038407;28;20204;-71
2023/10/30 03:50:12;;;;;;;10.27;4.60;;;;;;;10.56;100.00;95287.72;5037816;28;20617;-72
2023/10/30 03:52:40;;;;;;;6.00;3.63;;;;;;;10.73;100.00;95294.25;5036716;28;20208;-72
2023/10/30 03:55:08;;;;;;;7.00;4.17;;;;;;;10.69;100.00;95297.47;5037336;28;20608;-72
2023/10/30 03:57:34;;;;;;;7.33;3.67;;;;;;;10.63;100.00;95291.19;5036876;28;20211;-71
2023/10/30 04:00:01;;;;;;;7.57;4.10;;;;;;;10.61;100.00;95305.59;5037893;28;20223;-72
2023/10/30 04:02:29;;;;;;;7.53;4.17;;;;;;;10.72;100.00;95297.09;5037299;28;20240;-71
2023/10/30 04:04:56;;;;;;;5.63;3.77;;;;;;;10.67;100.00;95286.34;5037521;28;20225;-71
2023/10/30 04:07:24;;;;;;;5.90;3.63;;;;;;;10.64;100.00;95284.09;5037410;28;20202;-71
2023/10/30 04:09:51;;;;;;;5.80;3.83;;;;;;;10.62;100.00;95283.50;5037584;28;20220;-72
2023/10/30 04:12:20;;;;;;;6.70;4.07;;;;;;;10.76;100.00;95275.41;5036436;28;20193;-71
2023/10/30 04:14:47;;;;;;;6.93;4.43;;;;;;;10.59;100.00;95270.72;5037451;28;20231;-71
2023/10/30 04:17:14;;;;;;;7.30;4.70;;;;;;;10.71;100.00;95279.66;5037008;28;20225;-71
2023/10/30 04:19:40;;;;;;;8.93;4.40;;;;;;;10.70;100.00;95270.94;5036551;28;20205;-71
2023/10/30 04:22:07;;;;;;;6.97;4.17;;;;;;;10.78;100.00;95269.94;5035915;28;20619;-71
2023/10/30 04:24:33;;;;;;;7.03;4.50;;;;;;;10.74;100.00;95258.97;5036829;28;20217;-71
2023/10/30 04:27:01;;;;;;;8.27;4.17;;;;;;;10.77;100.00;95252.50;5036583;28;20779;-71
2023/10/30 04:29:28;;;;;;;8.07;4.47;;;;;;;10.60;100.00;95252.09;5036989;28;20225;-71
2023/10/30 04:31:55;;;;;;;8.83;4.53;;;;;;;10.49;100.00;95262.41;5036914;28;20284;-71
2023/10/30 04:34:21;;;;;;;9.17;4.73;;;;;;;10.69;100.00;95252.69;5036354;28;20216;-71
2023/10/30 04:36:48;;;;;;;8.50;4.40;;;;;;;10.45;100.00;95238.28;5036434;28;20209;-71
2023/10/30 04:39:15;;;;;;;7.80;4.40;;;;;;;10.29;100.00;95237.03;5037056;28;20237;-71
2023/10/30 04:41:41;;;;;;;8.13;4.87;;;;;;;10.48;100.00;95247.63;5036035;28;20221;-71
2023/10/30 04:44:09;;;;;;;8.17;4.90;;;;;;;10.64;100.00;95252.50;5036751;28;20201;-73
2023/10/30 04:46:36;;;;;;;8.00;4.20;;;;;;;10.61;100.00;95237.88;5036802;28;20201;-71
2023/10/30 04:49:02;;;;;;;8.23;4.83;;;;;;;10.46;100.00;95245.19;5037395;28;20266;-71
2023/10/30 04:51:29;;;;;;;6.27;3.90;;;;;;;10.75;100.00;95233.47;5035544;28;20211;-71
2023/10/30 04:53:55;;;;;;;9.10;4.30;;;;;;;10.75;100.00;95242.16;5036760;28;20231;-71
2023/10/30 04:56:22;;;;;;;6.13;3.77;;;;;;;10.60;100.00;95241.56;5036194;28;20733;-72
2023/10/30 04:58:49;;;;;;;6.37;4.07;;;;;;;10.70;100.00;95252.50;5036369;28;20581;-71
2023/10/30 05:01:16;;;;;;;6.83;3.90;;;;;;;10.79;100.00;95243.38;5035723;28;20229;-71
2023/10/30 05:03:43;;;;;;;6.43;3.57;;;;;;;10.90;100.00;95257.81;5036660;28;20201;-72
2023/10/30 05:06:09;;;;;;;7.33;4.20;;;;;;;10.87;100.00;95253.75;5036107;28;20239;-72
2023/10/30 05:08:37;;;;;;;6.27;3.73;;;;;;;10.80;100.00;95258.19;5035825;28;20215;-71
2023/10/30 05:11:04;;;;;;;7.57;3.97;;;;;;;10.92;100.00;95268.94;5036751;28;20204;-72
2023/10/30 05:13:30;;;;;;;7.33;4.23;;;;;;;11.00;100.00;95262.44;5035667;28;20213;-72
2023/10/30 05:15:57;;;;;;;5.87;3.70;;;;;;;10.93;100.00;95274.81;5036534;28;20809;-72
2023/10/30 05:18:25;;;;;;;9.00;3.63;;;;;;;11.08;100.00;95279.88;5035467;28;20212;-72
2023/10/30 05:20:51;;;;;;;5.37;3.17;;;;;;;10.94;100.00;95271.16;5037760;28;20201;-72
2023/10/30 05:23:18;;;;;;;6.47;4.03;;;;;;;11.34;100.00;95278.06;5035889;28;20212;-72
2023/10/30 05:25:44;;;;;;;5.70;3.40;;;;;;;11.43;100.00;95274.19;5035841;28;20233;-72
2023/10/30 05:28:11;;;;;;;7.23;3.67;;;;;;;11.38;100.00;95276.63;5036212;28;20209;-71
2023/10/30 05:30:37;;;;;;;5.53;3.63;;;;;;;11.41;100.00;95278.06;5036730;28;20912;-72
2023/10/30 05:33:04;;;;;;;7.13;3.43;;;;;;;11.39;100.00;95286.19;5035073;28;20207;-72
2023/10/30 05:35:32;;;;;;;6.27;3.70;;;;;;;11.45;100.00;95271.34;5036208;28;20237;-71
2023/10/30 05:37:59;;;;;;;5.13;3.03;;;;;;;11.22;100.00;95270.97;5036149;28;20205;-72
2023/10/30 05:40:25;;;;;;;4.33;3.07;;;;;;;11.12;100.00;95278.47;5035166;28;20211;-72
2023/10/30 05:42:52;;;;;;;5.03;3.50;;;;;;;11.08;100.00;95283.31;5035783;28;20669;-73
2023/10/30 05:45:18;;;;;;;4.10;2.80;;;;;;;11.07;100.00;95267.72;5035237;28;20225;-71
2023/10/30 05:47:45;;;;;;;4.30;2.83;;;;;;;10.84;100.00;95264.66;5035300;28;20205;-71
2023/10/30 05:50:11;;;;;;;8.10;3.20;;;;;;;10.85;100.00;95265.50;5034733;28;20672;-72
2023/10/30 05:52:39;;;;;;;4.43;2.90;;;;;;;10.99;100.00;95266.09;5034844;28;20207;-72
2023/10/30 05:55:08;;;;;;;3.00;2.30;;;;;;;10.82;100.00;95265.88;5035170;28;20229;-72
2023/10/30 05:57:34;;;;;;;3.27;2.30;;;;;;;10.59;100.00;95265.44;5035227;28;20205;-71
2023/10/30 06:00:01;;;;;;;3.07;2.40;;;;;;;10.62;100.00;95257.97;5035563;28;20216;-71
2023/10/30 06:02:28;;;;;;;3.60;2.50;;;;;;;10.65;100.00;95254.91;5034624;28;21052;-73
2023/10/30 06:04:54;;;;;;;3.53;2.50;;;;;;;10.56;100.00;95260.59;5035016;28;20229;-72
2023/10/30 06:07:21;;;;;;;2.70;2.07;;;;;;;10.49;100.00;95255.31;5035561;28;20574;-71
2023/10/30 06:09:49;;;;;;;3.47;2.40;;;;;;;10.59;100.00;95252.28;5035366;28;20201;-72
2023/10/30 06:12:16;;;;;;;4.50;2.67;;;;;;;10.47;100.00;95254.69;5034538;28;20197;-73
2023/10/30 06:14:42;;;;;;;2.97;2.17;;;;;;;10.41;100.00;95252.03;5035476;28;20715;-71
2023/10/30 06:17:09;;;;;;;4.67;3.27;;;;;;;10.55;100.00;95246.63;5035376;28;20212;-72
2023/10/30 06:19:36;;;;;;;4.37;2.50;;;;;;;10.34;100.00;95248.59;5035029;28;20212;-72
2023/10/30 06:22:03;;;;;;;8.77;3.70;;;;;;;10.45;100.00;95253.25;5034877;28;20224;-71
2023/10/30 06:24:31;;;;;;;7.03;3.27;;;;;;;10.47;100.00;95254.69;5034734;28;20206;-72
2023/10/30 06:26:58;;;;;;;5.40;3.10;;;;;;;10.74;100.00;95258.97;5035362;28;20283;-72
2023/10/30 06:29:25;;;;;;;4.57;2.70;;;;;;;10.50;100.00;95270.09;5033890;28;20206;-71
2023/10/30 06:31:52;;;;;;;3.80;2.70;;;;;;;10.56;100.00;95276.38;5035173;28;20199;-71
2023/10/30 06:34:18;;;;;;;4.43;3.00;;;;;;;10.55;100.00;95272.13;5038929;28;20632;-72
2023/10/30 06:36:46;;;;;;;6.37;4.00;;;;;;;10.59;100.00;95275.97;5039215;28;20201;-71
2023/10/30 06:39:13;;;;;;;7.50;4.13;;;;;;;10.72;100.00;95282.09;5038792;28;20201;-71
2023/10/30 06:41:39;;;;;;;8.20;4.63;;;;;;;10.75;100.00;95276.41;5038954;28;20221;-73
2023/10/30 06:44:07;;;;;;;7.37;4.80;;;;;;;10.79;100.00;95274.19;5039012;28;20582;-72
2023/10/30 06:46:34;;;;;;;7.97;4.63;;;;;;;10.59;100.00;95273.34;5038815;28;20225;-71
2023/10/30 06:49:00;;;;;;;6.80;3.80;;;;;;;10.77;100.00;95269.13;5039656;28;20198;-71
2023/10/30 06:51:27;;;;;;;8.43;4.33;;;;;;;10.82;100.00;95273.78;5038171;28;20580;-72
2023/10/30 06:53:53;;;;;;;5.33;3.57;;;;;;;10.85;100.00;95276.84;5039133;28;20288;-72
2023/10/30 06:56:20;;;;;;;5.60;3.43;;;;;;;10.95;100.00;95278.06;5038688;28;20855;-72
2023/10/30 06:58:47;;;;;;;9.27;3.53;;;;;;;10.89;100.00;95271.97;5038048;28;20207;-71
2023/10/30 07:01:14;;;;;;;7.13;3.90;;;;;;;11.03;100.00;95266.50;5037797;28;20205;-72
2023/10/30 07:03:41;;;;;;;6.47;3.43;;;;;;;11.05;100.00;95265.28;5039481;28;20726;-73
2023/10/30 07:06:10;;;;;;;7.37;4.17;;;;;;;11.03;100.00;95269.94;5039407;28;20221;-71
2023/10/30 07:08:37;;;;;;;7.37;4.30;;;;;;;10.88;100.00;95265.09;5038854;28;20201;-71
2023/10/30 07:11:04;;;;;;;5.63;3.63;;;;;;;10.82;100.00;95260.59;5037254;28;20242;-72
2023/10/30 07:13:30;;;;;;;5.73;3.20;;;;;;;10.92;100.00;95261.03;5038137;28;20668;-72
2023/10/30 07:15:57;;;;;;;5.67;3.33;;;;;;;11.00;100.00;95265.09;5038006;28;20228;-71
2023/10/30 07:18:25;;;;;;;5.30;3.50;;;;;;;11.32;100.00;95266.91;5037899;28;20584;-72
2023/10/30 07:20:51;;;;;;;4.40;3.00;;;;;;;11.14;100.00;95264.06;5038383;28;20581;-72
2023/10/30 07:23:18;;;;;;;5.63;3.50;;;;;;;11.24;100.00;95277.66;5037175;28;20223;-72
2023/10/30 07:25:44;;;;;;;4.73;2.63;;;;;;;11.33;100.00;95273.78;5038106;28;20597;-72
2023/10/30 07:28:11;;;;;;;5.10;3.43;;;;;;;11.35;100.00;95273.59;5037913;28;20198;-71
2023/10/30 07:30:38;;;;;;;6.03;3.37;;;;;;;11.35;100.00;95269.09;5038897;28;20201;-72
2023/10/30 07:33:04;;;;;;;4.07;2.60;;;;;;;11.52;100.00;95262.44;5037397;28;20220;-72
2023/10/30 07:35:32;;;;;;;7.20;3.50;;;;;;;11.79;100.00;95262.16;5037910;28;20239;-72
2023/10/30 07:37:58;;;;;;;4.73;2.97;;;;;;;11.77;100.00;95252.81;5038033;28;20208;-71
2023/10/30 07:40:26;;;;;;;5.40;3.00;;;;;;;11.95;100.00;95250.31;5036761;28;20197;-73
2023/10/30 07:42:53;;;;;;;3.50;2.63;;;;;;;11.98;100.00;95244.66;5037271;28;20891;-72
2023/10/30 07:45:20;;;;;;;5.70;3.10;;;;;;;11.93;100.00;95245.25;5036906;28;20217;-72
2023/10/30 07:47:46;;;;;;;5.13;3.00;;;;;;;12.01;100.00;95241.56;5037998;28;20213;-72
2023/10/30 07:50:13;;;;;;;4.67;3.07;;;;;;;12.01;100.00;95244.22;5038559;28;20225;-72
2023/10/30 07:52:40;;;;;;;8.37;3.37;;;;;;;12.32;100.00;95234.50;5037544;28;20805;-71
2023/10/30 07:55:08;;;;;;;5.83;3.37;;;;;;;12.13;100.00;95238.06;5037290;28;21368;-72
2023/10/30 07:57:34;;;;;;;7.23;3.43;;;;;;;12.01;100.00;95247.66;5036856;28;20213;-73
2023/10/30 08:00:01;;;;;;;6.93;3.97;;;;;;;12.09;100.00;95241.34;5038096;28;20201;-72
2023/10/30 08:02:27;;;;;;;8.57;3.73;;;;;;;12.11;100.00;95232.19;5036482;28;20225;-72
2023/10/30 08:04:55;;;;;;;5.73;3.27;;;;;;;12.24;100.00;95232.13;5038048;28;20593;-72
2023/10/30 08:07:21;;;;;;;4.83;2.87;;;;;;;12.37;100.00;95224.13;5037566;28;20750;-72
2023/10/30 08:09:49;;;;;;;5.67;3.57;;;;;;;12.72;100.00;95215.56;5037009;28;20193;-72
2023/10/30 08:12:16;;;;;;;4.37;3.20;;;;;;;12.63;100.00;95216.03;5036416;28;20205;-72
2023/10/30 08:14:42;;;;;;;4.93;3.10;;;;;;;12.73;100.00;95214.53;5038234;28;20221;-72
2023/10/30 08:17:09;;;;;;;4.53;2.87;;;;;;;13.05;100.00;95218.78;5037106;28;20205;-72
2023/10/30 08:19:35;;;;;;;6.23;3.17;;;;;;;13.32;100.00;95209.59;5036606;28;20205;-72
2023/10/30 08:22:02;;;;;;;6.50;3.00;;;;;;;13.43;100.00;95205.19;5034826;28;20224;-72
2023/10/30 08:24:28;;;;;;;5.90;2.70;;;;;;;13.65;100.00;95211.69;5035153;28;20209;-71
2023/10/30 08:26:56;;;;;;;4.73;2.57;;;;;;;13.92;100.00;95206.91;5036125;28;20205;-72
2023/10/30 08:29:23;;;;;;;4.23;2.57;;;;;;;13.83;100.00;95203.72;5034641;28;20213;-71
2023/10/30 08:31:50;;;;;;;3.30;1.93;;;;;;;13.90;100.00;95209.78;5035525;28;20201;-72
2023/10/30 08:34:16;;;;;;;2.80;1.77;;;;;;;14.02;100.00;95218.59;5034591;28;20665;-73
2023/10/30 08:36:43;;;;;;;2.53;1.70;;;;;;;14.26;100.00;95201.81;5035961;28;20208;-72
2023/10/30 08:39:09;;;;;;;3.50;2.07;;;;;;;14.51;100.00;95205.13;5034774;28;20578;-72
2023/10/30 08:41:36;;;;;;;2.20;1.60;;;;;;;14.44;100.00;95204.41;5034291;28;20924;-72
2023/10/30 08:44:05;;;;;;;2.83;1.77;;;;;;;14.81;100.00;95206.72;5034961;28;20228;-73
2023/10/30 08:46:33;;;;;;;3.00;1.70;;;;;;;14.87;100.00;95206.59;5034835;28;20217;-72
2023/10/30 08:49:00;;;;;;;2.03;1.67;;;;;;;15.02;100.00;95203.50;5035049;28;20193;-73
2023/10/30 08:51:27;;;;;;;3.13;1.67;;;;;;;15.09;100.00;95190.97;5034225;28;20201;-72
2023/10/30 08:53:53;;;;;;;2.07;1.47;;;;;;;15.11;100.00;95200.31;5035855;28;20208;-71
2023/10/30 08:56:20;;;;;;;3.70;1.53;;;;;;;15.26;100.00;95200.69;5034906;28;20221;-73
2023/10/30 08:58:46;;;;;;;5.07;1.60;;;;;;;15.45;100.00;95196.88;5035071;28;20206;-72
2023/10/30 09:01:15;;;;;;;3.23;1.47;;;;;;;15.68;100.00;95186.22;5033985;28;20209;-72
2023/10/30 09:03:42;;;;;;;2.10;1.40;;;;;;;15.72;100.00;95182.06;5034967;28;20278;-72
2023/10/30 09:06:08;;;;;;;2.13;1.80;;;;;;;15.73;100.00;95184.47;5035396;28;20283;-72
2023/10/30 09:08:35;;;;;;;1.95;1.35;;;;;;;15.60;100.00;95191.91;5035105;28;20205;-72
2023/10/30 09:11:01;;;;;;;2.40;1.60;;;;;;;15.50;100.00;95197.00;5035441;28;20774;-73
2023/10/30 09:13:28;;;;;;;2.60;1.40;;;;;;;15.57;100.00;95187.88;5034942;28;20209;-72
2023/10/30 09:15:54;;;;;;;4.30;2.17;;;;;;;15.44;100.00;95189.94;5035701;28;20217;-72
2023/10/30 09:18:22;;;;;;;4.03;2.30;;;;;;;15.80;100.00;95181.72;5035175;28;20225;-72
2023/10/30 09:20:49;;;;;;;2.67;2.00;;;;;;;15.62;100.00;95173.91;5034468;28;20211;-72
2023/10/30 09:23:15;;;;;;;2.97;2.08;;;;;;;15.34;100.00;95181.78;5035518;28;20312;-73
2023/10/30 09:25:42;;;;;;;4.50;2.55;;;;;;;15.24;100.00;95175.44;5036161;28;20227;-72
2023/10/30 09:28:08;;;;;;;3.88;2.80;;;;;;;15.16;100.00;95171.25;5035270;28;20201;-73
2023/10/30 09:30:35;;;;;;;4.82;2.90;;;;;;;15.33;100.00;95165.03;5034865;28;20208;-72
2023/10/30 09:33:01;;;;;;;2.65;2.00;;;;;;;15.35;100.00;95164.78;5035351;28;20193;-72
2023/10/30 09:35:31;;;;;;;4.70;2.90;;;;;;;15.26;100.00;95164.34;5036022;28;20232;-72
2023/10/30 09:37:58;;;;;;;4.10;2.73;;;;;;;15.33;100.00;95167.69;5035200;28;20201;-72
2023/10/30 09:40:26;;;;;;;5.57;3.05;;;;;;;15.26;100.00;95160.88;5036177;28;20220;-71
2023/10/30 09:42:52;;;;;;;3.90;2.60;;;;;;;15.31;100.00;95147.72;5035555;28;20594;-72
2023/10/30 09:45:21;;;;;;;5.40;3.00;;;;;;;15.51;100.00;95158.78;5034743;28;21172;-73
2023/10/30 09:47:48;;;;;;;4.53;2.90;;;;;;;15.62;100.00;95152.66;5035831;28;20209;-73
2023/10/30 09:50:15;;;;;;;3.33;2.38;;;;;;;15.76;100.00;95146.84;5035806;28;20201;-71
2023/10/30 09:52:44;;;;;;;4.18;2.58;;;;;;;15.95;100.00;95140.34;5034577;28;20567;-72
2023/10/30 09:55:12;;;;;;;6.53;2.38;;;;;;;15.80;100.00;95137.38;5035440;28;20711;-72
2023/10/30 09:57:40;;;;;;;3.35;2.35;;;;;;;15.87;100.00;95144.16;5035552;28;20212;-72
2023/10/30 10:00:09;;;;;;;4.78;2.67;;;;;;;15.87;100.00;95138.84;5034998;28;20254;-73
2023/10/30 10:02:36;;;;;;;3.85;2.42;;;;;;;15.61;100.00;95138.56;5035365;28;20267;-72
2023/10/30 10:05:02;;;;;;;4.40;2.42;;;;;;;15.57;100.00;95121.50;5036282;28;20378;-72
2023/10/30 10:07:29;;;;;;;4.25;1.95;;;;;;;15.71;100.00;95111.44;5035212;28;20216;-72
2023/10/30 10:10:01;;;;;;;3.40;2.20;;;;;;;15.78;100.00;95109.44;5035752;28;20205;-72
2023/10/30 10:12:30;;;;;;;3.90;2.30;;;;;;;15.79;100.00;95106.53;5035603;28;20630;-72
2023/10/30 10:14:56;;;;;;;3.67;2.42;;;;;;;15.46;100.00;95109.03;5036113;28;20259;-72
2023/10/30 10:17:23;;;;;;;5.75;2.65;;;;;;;15.73;100.00;95104.81;5034918;28;20201;-72
2023/10/30 10:19:50;;;;;;;3.63;2.08;;;;;;;15.65;100.00;95093.75;5035147;28;20201;-72
2023/10/30 10:22:28;;;;;;;3.78;2.22;;;;;;;16.16;100.00;95095.28;5034615;28;20220;-72
2023/10/30 10:24:55;;;;;;;4.25;2.28;;;;;;;15.99;100.00;95104.28;5035246;28;20224;-71
2023/10/30 10:27:23;;;;;;;3.00;2.25;;;;;;;15.81;100.00;95085.03;5034523;28;20746;-73
2023/10/30 10:29:53;;;;;;;4.50;2.13;;;;;;;15.75;100.00;95080.69;5034805;28;20697;-73
2023/10/30 10:32:19;;;;;;;3.10;2.15;;;;;;;15.65;100.00;95089.25;5034217;28;20197;-73
2023/10/30 10:34:48;;;;;;;3.90;2.30;;;;;;;15.90;100.00;95084.44;5035278;28;20315;-72
2023/10/30 10:37:17;;;;;;;3.53;2.08;;;;;;;16.02;100.00;95087.84;5034650;28;20399;-72
2023/10/30 10:39:48;;;;;;;6.47;2.05;;;;;;;16.08;100.00;95082.38;5035548;28;20213;-73
2023/10/30 10:42:18;;;;;;;3.20;1.90;;;;;;;15.95;100.00;95074.72;5034721;28;20224;-72
2023/10/30 10:44:47;;;;;;;3.00;1.80;;;;;;;15.98;100.00;95078.75;5035591;28;20890;-72
2023/10/30 10:47:14;;;;;;;3.15;1.80;;;;;;;16.26;100.00;95076.91;5035612;28;20300;-71
2023/10/30 10:49:41;;;;;;;3.03;1.77;;;;;;;16.47;100.00;95068.25;5035576;28;20231;-73
2023/10/30 10:52:10;;;;;;;2.65;1.52;;;;;;;16.60;100.00;95075.91;5035404;28;20201;-73
2023/10/30 10:54:46;;;;;;;3.55;1.63;;;;;;;16.40;100.00;95080.88;5035109;28;20893;-73
2023/10/30 10:57:18;;;;;;;3.28;1.90;;;;;;;16.39;100.00;95084.56;5035068;28;20208;-72
2023/10/30 10:59:48;;;;;;;3.65;1.70;;;;;;;16.53;100.00;95061.94;5033979;28;20428;-72
2023/10/30 11:02:21;;;;;;;2.47;1.40;;;;;;;16.37;100.00;95043.31;5034480;28;20208;-73
2023/10/30 11:04:49;;;;;;;2.67;1.60;;;;;;;16.25;100.00;95042.56;5034156;28;20778;-72
2023/10/30 11:07:24;;;;;;;3.60;2.03;;;;;;;16.42;100.00;95025.63;5033811;28;20626;-73
2023/10/30 11:09:56;;;;;;;5.50;1.70;;;;;;;16.13;100.00;95016.03;5035068;28;20578;-72
2023/10/30 11:12:36;;;;;;;2.15;1.40;;;;;;;16.51;100.00;95024.16;5036166;28;20205;-72
2023/10/30 11:15:12;;;;;;;6.10;1.50;;;;;;;16.38;100.00;95015.69;5034594;28;20336;-73
2023/10/30 11:17:39;;;;;;;2.40;1.45;;;;;;;16.30;100.00;95008.91;5036399;28;20216;-71
2023/10/30 11:20:08;;;;;;;1.98;1.52;;;;;;;16.50;100.00;95001.28;5038249;28;20197;-72
2023/10/30 11:22:39;;;;;;;2.15;1.50;;;;;;;16.33;100.00;95003.13;5039047;28;20209;-73
2023/10/30 11:25:06;;;;;;;2.50;1.58;;;;;;;16.16;100.00;94994.28;5038208;28;20217;-72